KCEZ

Cortez Municipal Airport

Cortez, Colorado, USA
METAR KCEZ 242353Z AUTO 24005G14KT 10SM CLR 28/M08 A3013 RMK AO2 SLP143 T02781083 10289 20250 56011
Observed Flight Rules
May-24 @ 23:53 UTC (an hour ago) Visual Flight Rules
Wind Visibility Clouds
240° at 5 knots
 Gusting to 14 knots
10 miles
  • Clear skies
Temperatures Readings
Current 28°C / 82°F
Dewpoint -8°C / 18°F
Humidity 9%
Altimeter 30.13" Hg
Pressure 1014.3 hPa
Elevation 1797
METAR KCEZ 242353Z AUTO 24005G14KT 10SM CLR 28/M08 A3013 RMK AO2 SLP143 T02781083 10289 20250 56011
Observed Flight Rules
May-24 @ 23:53 UTC
(an hour ago)
VFR
Wind Visibility
240° at 5 knots
 Gusting to 14 knots
10 miles
Clouds
  • Clear skies
Temperature Dewpoint
28°C / 82°F -8°C / 18°F
Humidity Altimeter Pressure
9% 30.13" Hg 1014.3 hPa